PWSweather.com
Personal Weather Stations
Station Observations
CW9610
Eastern Jefferson County Kansas, Mclouth, KS 66054

Eastern Jefferson County KansasMclouth, KS 66054

Lat: 39.1947, Lon: -95.238

Elevation: 1151

Station Type: Davis VP2

https://mclwx.info

Latest ConditionsUpdated 11:15:00 PM CDT Sunday, Jun 24, 2018
Currently Today's Max Today's Min Today's Average
Temperature 70.8°F21.6°C 83.1°F28.4°C 67.6°F19.8°C 74.0°F23.3°C
Dew Point 65.7°F18.7°C 70.6°F21.4°C 61.6°F16.4°C 66.5°F19.2°C
Winds 2.6 mph E4.2 kmh E 7.6 mph -12.2 kmh - - 1.3 mph 2.1 kmh
Wind Gusts 7.0 mph11.3 kmh 20.0 mph32.2 kmh - -
Humidity 84% 84% 64% 78%
Pressure 29.92 in1013.2 mb 29.93 in1013.5 mb 29.77 in1008.1 mb -
Precipitation - 0.47 in11.9 mm - -
Hour Temp Dew Point Humidity Winds Wind Gusts Pressure Precip Precip Rate Daily Precip Total
11:15 PM 70.8°F21.6°C 65.7°F18.7°C 84% 2.6 mph E4.2 kmh E 7.0 mph11.3 kmh 29.92 in1013.2 mb 0.00 in0.0 mm 0.00 in0.0 mm 0.47 in11.9 mm
11:00 PM 70.8°F21.6°C 65.4°F18.6°C 83% 0.3 mph E0.5 kmh E 6.0 mph9.7 kmh 29.92 in1013.2 mb 0.00 in0.0 mm 0.00 in0.0 mm 0.47 in11.9 mm
10:45 PM 71.4°F21.9°C 66.0°F18.9°C 83% 2.6 mph E4.2 kmh E 6.0 mph9.7 kmh 29.93 in1013.5 mb 0.00 in0.0 mm 0.00 in0.0 mm 0.47 in11.9 mm
10:30 PM 71.6°F22.0°C 66.2°F19.0°C 83% 2.1 mph E3.4 kmh E 7.0 mph11.3 kmh 29.92 in1013.2 mb 0.00 in0.0 mm 0.00 in0.0 mm 0.47 in11.9 mm
10:15 PM 71.9°F22.2°C 66.1°F18.9°C 82% 0.1 mph E0.2 kmh E 5.0 mph8.0 kmh 29.92 in1013.2 mb 0.00 in0.0 mm 0.00 in0.0 mm 0.47 in11.9 mm
10:00 PM 72.3°F22.4°C 66.5°F19.2°C 82% Calm Calm 2.0 mph3.2 kmh 29.92 in1013.2 mb 0.00 in0.0 mm 0.00 in0.0 mm 0.47 in11.9 mm
09:45 PM 72.6°F22.6°C 66.4°F19.1°C 81% Calm Calm 2.0 mph3.2 kmh 29.91 in1012.9 mb 0.00 in0.0 mm 0.00 in0.0 mm 0.47 in11.9 mm
09:30 PM 73.2°F22.9°C 66.7°F19.3°C 80% 1.7 mph E2.7 kmh E 5.0 mph8.0 kmh 29.90 in1012.5 mb 0.00 in0.0 mm 0.00 in0.0 mm 0.47 in11.9 mm
09:15 PM 73.8°F23.2°C 67.2°F19.6°C 80% 4.0 mph E6.4 kmh E 9.0 mph14.5 kmh 29.90 in1012.5 mb 0.00 in0.0 mm 0.00 in0.0 mm 0.47 in11.9 mm
09:00 PM 74.3°F23.5°C 68.1°F20.1°C 81% 2.3 mph SE3.7 kmh SE 5.0 mph8.0 kmh 29.88 in1011.9 mb 0.00 in0.0 mm 0.00 in0.0 mm 0.47 in11.9 mm
08:45 PM 74.7°F23.7°C 68.5°F20.3°C 81% 1.0 mph SE1.6 kmh SE 4.0 mph6.4 kmh 29.87 in1011.5 mb 0.00 in0.0 mm 0.00 in0.0 mm 0.47 in11.9 mm
08:30 PM 75.2°F24.0°C 68.6°F20.3°C 80% 1.1 mph SE1.8 kmh SE 3.0 mph4.8 kmh 29.86 in1011.2 mb 0.00 in0.0 mm 0.00 in0.0 mm 0.47 in11.9 mm
08:15 PM 75.7°F24.3°C 68.7°F20.4°C 79% 0.7 mph SE1.1 kmh SE 4.0 mph6.4 kmh 29.85 in1010.8 mb 0.00 in0.0 mm 0.00 in0.0 mm 0.47 in11.9 mm
08:00 PM 76.4°F24.7°C 69.4°F20.8°C 79% 0.2 mph 0.3 kmh -- 29.85 in1010.8 mb 0.00 in0.0 mm 0.00 in0.0 mm 0.47 in11.9 mm
07:45 PM 77.0°F25.0°C 69.2°F20.7°C 77% 0.2 mph SE0.3 kmh SE 4.0 mph6.4 kmh 29.84 in1010.5 mb 0.00 in0.0 mm 0.00 in0.0 mm 0.47 in11.9 mm
07:30 PM 77.6°F25.3°C 69.4°F20.8°C 76% 0.1 mph SSE0.2 kmh SSE 4.0 mph6.4 kmh 29.83 in1010.2 mb 0.00 in0.0 mm 0.00 in0.0 mm 0.47 in11.9 mm
07:15 PM 77.7°F25.4°C 69.5°F20.8°C 76% Calm Calm 4.0 mph6.4 kmh 29.82 in1009.8 mb 0.00 in0.0 mm 0.00 in0.0 mm 0.47 in11.9 mm
07:00 PM 77.8°F25.4°C 69.6°F20.9°C 76% 1.3 mph SSE2.1 kmh SSE 4.0 mph6.4 kmh 29.82 in1009.8 mb 0.00 in0.0 mm 0.00 in0.0 mm 0.47 in11.9 mm
06:45 PM 77.7°F25.4°C 69.5°F20.8°C 76% 2.9 mph ESE4.7 kmh ESE 8.0 mph12.9 kmh 29.82 in1009.8 mb 0.00 in0.0 mm 0.00 in0.0 mm 0.47 in11.9 mm
06:30 PM 77.6°F25.3°C 69.8°F21.0°C 77% 5.9 mph E9.5 kmh E 11.0 mph17.7 kmh 29.82 in1009.8 mb 0.00 in0.0 mm 0.00 in0.0 mm 0.47 in11.9 mm
06:15 PM 77.3°F25.2°C 69.9°F21.1°C 78% 3.4 mph E5.5 kmh E 10.0 mph16.1 kmh 29.83 in1010.2 mb 0.00 in0.0 mm 0.00 in0.0 mm 0.47 in11.9 mm
06:00 PM 77.0°F25.0°C 70.0°F21.1°C 79% 2.4 mph ESE3.9 kmh ESE 9.0 mph14.5 kmh 29.83 in1010.2 mb 0.00 in0.0 mm 0.00 in0.0 mm 0.47 in11.9 mm
05:45 PM 77.2°F25.1°C 70.2°F21.2°C 79% 2.0 mph SE3.2 kmh SE 9.0 mph14.5 kmh 29.83 in1010.2 mb 0.00 in0.0 mm 0.00 in0.0 mm 0.47 in11.9 mm
05:30 PM 77.1°F25.1°C 70.1°F21.2°C 79% 1.9 mph SSE3.1 kmh SSE 7.0 mph11.3 kmh 29.83 in1010.2 mb 0.00 in0.0 mm 0.00 in0.0 mm 0.47 in11.9 mm
05:15 PM 77.0°F25.0°C 69.6°F20.9°C 78% 1.6 mph S2.6 kmh S 7.0 mph11.3 kmh 29.84 in1010.5 mb 0.00 in0.0 mm 0.00 in0.0 mm 0.47 in11.9 mm
05:00 PM 77.1°F25.1°C 69.3°F20.7°C 77% 3.1 mph S5.0 kmh S 8.0 mph12.9 kmh 29.84 in1010.5 mb 0.00 in0.0 mm 0.00 in0.0 mm 0.47 in11.9 mm
04:45 PM 76.9°F24.9°C 69.1°F20.6°C 77% 4.0 mph S6.4 kmh S 12.0 mph19.3 kmh 29.84 in1010.5 mb 0.00 in0.0 mm 0.00 in0.0 mm 0.47 in11.9 mm
04:30 PM 76.3°F24.6°C 69.3°F20.7°C 79% 3.1 mph SSE5.0 kmh SSE 7.0 mph11.3 kmh 29.84 in1010.5 mb 0.00 in0.0 mm 0.00 in0.0 mm 0.47 in11.9 mm
04:15 PM 75.7°F24.3°C 69.5°F20.8°C 81% 3.4 mph SSE5.5 kmh SSE 8.0 mph12.9 kmh 29.84 in1010.5 mb 0.00 in0.0 mm 0.00 in0.0 mm 0.47 in11.9 mm
04:00 PM 73.9°F23.3°C 68.8°F20.4°C 84% 1.7 mph SE2.7 kmh SE 6.0 mph9.7 kmh 29.84 in1010.5 mb 0.00 in0.0 mm 0.00 in0.0 mm 0.47 in11.9 mm
03:45 PM 72.2°F22.3°C 66.7°F19.3°C 83% 1.8 mph S2.9 kmh S 3.0 mph4.8 kmh 29.84 in1010.5 mb 0.00 in0.0 mm 0.00 in0.0 mm 0.47 in11.9 mm
03:30 PM 71.2°F21.8°C 66.1°F18.9°C 84% 0.1 mph S0.2 kmh S 4.0 mph6.4 kmh 29.86 in1011.2 mb 0.02 in0.5 mm 0.00 in0.0 mm 0.47 in11.9 mm
03:15 PM 70.2°F21.2°C 65.1°F18.4°C 84% Calm Calm 1.0 mph1.6 kmh 29.87 in1011.5 mb 0.21 in5.3 mm 0.00 in0.0 mm 0.47 in11.9 mm
03:00 PM 68.5°F20.3°C 63.5°F17.5°C 84% Calm Calm -- 29.87 in1011.5 mb 0.47 in11.9 mm 0.00 in0.0 mm 0.47 in11.9 mm
02:45 PM 67.6°F19.8°C 62.3°F16.8°C 83% 0.1 mph 0.2 kmh -- 29.87 in1011.5 mb 0.47 in11.9 mm 0.08 in2.0 mm 0.47 in11.9 mm
02:30 PM 67.6°F19.8°C 61.6°F16.4°C 81% 2.9 mph S4.7 kmh S 5.0 mph8.0 kmh 29.88 in1011.9 mb 0.45 in11.4 mm 0.76 in19.3 mm 0.45 in11.4 mm
02:15 PM 68.7°F20.4°C 61.9°F16.6°C 79% 7.6 mph SE12.2 kmh SE 20.0 mph32.2 kmh 29.88 in1011.9 mb 0.26 in6.6 mm 1.04 in26.4 mm 0.26 in6.6 mm
02:00 PM 77.0°F25.0°C 66.5°F19.2°C 70% 0.8 mph ESE1.3 kmh ESE 18.0 mph29.0 kmh 29.87 in1011.5 mb 0.00 in0.0 mm 0.00 in0.0 mm 0.00 in0.0 mm
01:45 PM 79.7°F26.5°C 69.0°F20.6°C 70% 0.5 mph E0.8 kmh E 3.0 mph4.8 kmh 29.84 in1010.5 mb 0.00 in0.0 mm 0.00 in0.0 mm 0.00 in0.0 mm
01:30 PM 80.8°F27.1°C 68.8°F20.4°C 67% 3.2 mph E5.1 kmh E 7.0 mph11.3 kmh 29.84 in1010.5 mb 0.00 in0.0 mm 0.00 in0.0 mm 0.00 in0.0 mm
01:15 PM 82.3°F27.9°C 68.9°F20.5°C 64% 2.6 mph ESE4.2 kmh ESE 10.0 mph16.1 kmh 29.83 in1010.2 mb 0.00 in0.0 mm 0.00 in0.0 mm 0.00 in0.0 mm
01:00 PM 82.7°F28.2°C 69.7°F20.9°C 65% 1.5 mph S2.4 kmh S 7.0 mph11.3 kmh 29.84 in1010.5 mb 0.00 in0.0 mm 0.00 in0.0 mm 0.00 in0.0 mm
12:45 PM 83.1°F28.4°C 70.6°F21.4°C 66% 0.8 mph S1.3 kmh S 5.0 mph8.0 kmh 29.85 in1010.8 mb 0.00 in0.0 mm 0.00 in0.0 mm 0.00 in0.0 mm
12:30 PM 82.6°F28.1°C 70.1°F21.2°C 66% 0.8 mph SSW1.3 kmh SSW 4.0 mph6.4 kmh 29.86 in1011.2 mb 0.00 in0.0 mm 0.00 in0.0 mm 0.00 in0.0 mm
12:15 PM 81.4°F27.4°C 69.8°F21.0°C 68% 0.7 mph SSW1.1 kmh SSW 4.0 mph6.4 kmh 29.86 in1011.2 mb 0.00 in0.0 mm 0.00 in0.0 mm 0.00 in0.0 mm
12:00 PM 80.6°F27.0°C 69.5°F20.8°C 69% 0.6 mph 1.0 kmh -- 29.86 in1011.2 mb 0.00 in0.0 mm 0.00 in0.0 mm 0.00 in0.0 mm
11:45 AM 80.2°F26.8°C 69.1°F20.6°C 69% 0.2 mph SW0.3 kmh SW 3.0 mph4.8 kmh 29.86 in1011.2 mb 0.00 in0.0 mm 0.00 in0.0 mm 0.00 in0.0 mm
11:30 AM 79.4°F26.3°C 69.2°F20.7°C 71% 2.2 mph SW3.5 kmh SW 5.0 mph8.0 kmh 29.86 in1011.2 mb 0.00 in0.0 mm 0.00 in0.0 mm 0.00 in0.0 mm
11:15 AM 79.0°F26.1°C 68.8°F20.4°C 71% 3.1 mph SW5.0 kmh SW 6.0 mph9.7 kmh 29.86 in1011.2 mb 0.00 in0.0 mm 0.00 in0.0 mm 0.00 in0.0 mm
11:00 AM 78.4°F25.8°C 68.6°F20.3°C 72% 4.0 mph SW6.4 kmh SW 6.0 mph9.7 kmh 29.86 in1011.2 mb 0.00 in0.0 mm 0.00 in0.0 mm 0.00 in0.0 mm
10:45 AM 78.6°F25.9°C 68.4°F20.2°C 71% 2.2 mph SSW3.5 kmh SSW 7.0 mph11.3 kmh 29.85 in1010.8 mb 0.00 in0.0 mm 0.00 in0.0 mm 0.00 in0.0 mm
10:30 AM 79.3°F26.3°C 68.2°F20.1°C 69% 3.0 mph S4.8 kmh S 8.0 mph12.9 kmh 29.85 in1010.8 mb 0.00 in0.0 mm 0.00 in0.0 mm 0.00 in0.0 mm
10:15 AM 80.1°F26.7°C 68.6°F20.3°C 68% 1.2 mph SSE1.9 kmh SSE 8.0 mph12.9 kmh 29.84 in1010.5 mb 0.00 in0.0 mm 0.00 in0.0 mm 0.00 in0.0 mm
10:00 AM 79.3°F26.3°C 69.5°F20.8°C 72% 1.9 mph SE3.1 kmh SE 6.0 mph9.7 kmh 29.85 in1010.8 mb 0.00 in0.0 mm 0.00 in0.0 mm 0.00 in0.0 mm
09:45 AM 78.1°F25.6°C 69.5°F20.8°C 75% 1.0 mph ESE1.6 kmh ESE 8.0 mph12.9 kmh 29.84 in1010.5 mb 0.00 in0.0 mm 0.00 in0.0 mm 0.00 in0.0 mm
09:30 AM 77.4°F25.2°C 68.9°F20.5°C 75% 1.4 mph ESE2.3 kmh ESE 4.0 mph6.4 kmh 29.83 in1010.2 mb 0.00 in0.0 mm 0.00 in0.0 mm 0.00 in0.0 mm
09:15 AM 76.0°F24.4°C 68.6°F20.3°C 78% 3.0 mph ESE4.8 kmh ESE 8.0 mph12.9 kmh 29.80 in1009.1 mb 0.00 in0.0 mm 0.00 in0.0 mm 0.00 in0.0 mm
09:00 AM 75.0°F23.9°C 67.7°F19.8°C 78% 4.0 mph SE6.4 kmh SE 8.0 mph12.9 kmh 29.78 in1008.5 mb 0.00 in0.0 mm 0.00 in0.0 mm 0.00 in0.0 mm
08:45 AM 73.1°F22.8°C 66.6°F19.2°C 80% 4.0 mph SE6.4 kmh SE 7.0 mph11.3 kmh 29.77 in1008.1 mb 0.00 in0.0 mm 0.00 in0.0 mm 0.00 in0.0 mm
08:30 AM 72.6°F22.6°C 66.4°F19.1°C 81% 3.0 mph S4.8 kmh S 6.0 mph9.7 kmh 29.78 in1008.5 mb 0.00 in0.0 mm 0.00 in0.0 mm 0.00 in0.0 mm
08:00 AM 70.3°F21.3°C 64.5°F18.1°C 82% 2.0 mph SW3.2 kmh SW 4.0 mph6.4 kmh 29.78 in1008.5 mb 0.00 in0.0 mm 0.00 in0.0 mm 0.00 in0.0 mm
07:45 AM 70.0°F21.1°C 64.2°F17.9°C 82% 0.7 mph SW1.1 kmh SW 5.0 mph8.0 kmh 29.79 in1008.8 mb 0.00 in0.0 mm 0.00 in0.0 mm 0.00 in0.0 mm
07:30 AM 70.0°F21.1°C 64.2°F17.9°C 82% 0.9 mph SW1.4 kmh SW 3.0 mph4.8 kmh 29.80 in1009.1 mb 0.00 in0.0 mm 0.00 in0.0 mm 0.00 in0.0 mm
07:15 AM 70.0°F21.1°C 63.9°F17.7°C 81% Calm Calm -- 29.81 in1009.5 mb 0.00 in0.0 mm 0.00 in0.0 mm 0.00 in0.0 mm
07:00 AM 69.9°F21.1°C 63.8°F17.7°C 81% 0.8 mph SW1.3 kmh SW 2.0 mph3.2 kmh 29.80 in1009.1 mb 0.00 in0.0 mm 0.00 in0.0 mm 0.00 in0.0 mm
06:45 AM 69.6°F20.9°C 63.5°F17.5°C 81% 1.0 mph SW1.6 kmh SW 5.0 mph8.0 kmh 29.80 in1009.1 mb 0.00 in0.0 mm 0.00 in0.0 mm 0.00 in0.0 mm
06:30 AM 69.1°F20.6°C 63.4°F17.4°C 82% Calm Calm 4.0 mph6.4 kmh 29.80 in1009.1 mb 0.00 in0.0 mm 0.00 in0.0 mm 0.00 in0.0 mm
06:15 AM 68.9°F20.5°C 63.2°F17.3°C 82% Calm Calm 3.0 mph4.8 kmh 29.80 in1009.1 mb 0.00 in0.0 mm 0.00 in0.0 mm 0.00 in0.0 mm
06:00 AM 69.2°F20.7°C 63.5°F17.5°C 82% 0.1 mph SW0.2 kmh SW 4.0 mph6.4 kmh 29.79 in1008.8 mb 0.00 in0.0 mm 0.00 in0.0 mm 0.00 in0.0 mm
05:45 AM 69.2°F20.7°C 63.5°F17.5°C 82% 0.3 mph SW0.5 kmh SW 4.0 mph6.4 kmh 29.78 in1008.5 mb 0.00 in0.0 mm 0.00 in0.0 mm 0.00 in0.0 mm
05:30 AM 69.2°F20.7°C 63.5°F17.5°C 82% Calm Calm -- 29.78 in1008.5 mb 0.00 in0.0 mm 0.00 in0.0 mm 0.00 in0.0 mm
05:15 AM 69.0°F20.6°C 63.3°F17.4°C 82% Calm Calm -- 29.78 in1008.5 mb 0.00 in0.0 mm 0.00 in0.0 mm 0.00 in0.0 mm
05:00 AM 69.1°F20.6°C 63.4°F17.4°C 82% Calm Calm -- 29.78 in1008.5 mb 0.00 in0.0 mm 0.00 in0.0 mm 0.00 in0.0 mm
04:45 AM 69.4°F20.8°C 63.3°F17.4°C 81% Calm Calm -- 29.79 in1008.8 mb 0.00 in0.0 mm 0.00 in0.0 mm 0.00 in0.0 mm
04:30 AM 69.2°F20.7°C 63.1°F17.3°C 81% Calm Calm -- 29.79 in1008.8 mb 0.00 in0.0 mm 0.00 in0.0 mm 0.00 in0.0 mm
04:15 AM 69.7°F20.9°C 63.6°F17.6°C 81% Calm Calm -- 29.79 in1008.8 mb 0.00 in0.0 mm 0.00 in0.0 mm 0.00 in0.0 mm
04:00 AM 69.9°F21.1°C 63.4°F17.4°C 80% Calm Calm -- 29.79 in1008.8 mb 0.00 in0.0 mm 0.00 in0.0 mm 0.00 in0.0 mm
03:45 AM 70.3°F21.3°C 63.8°F17.7°C 80% Calm Calm -- 29.78 in1008.5 mb 0.00 in0.0 mm 0.00 in0.0 mm 0.00 in0.0 mm
03:30 AM 70.5°F21.4°C 64.0°F17.8°C 80% Calm Calm -- 29.77 in1008.1 mb 0.00 in0.0 mm 0.00 in0.0 mm 0.00 in0.0 mm
03:15 AM 70.4°F21.3°C 63.9°F17.7°C 80% Calm Calm -- 29.79 in1008.8 mb 0.00 in0.0 mm 0.00 in0.0 mm 0.00 in0.0 mm
03:00 AM 70.4°F21.3°C 63.9°F17.7°C 80% Calm Calm -- 29.79 in1008.8 mb 0.00 in0.0 mm 0.00 in0.0 mm 0.00 in0.0 mm
02:45 AM 70.5°F21.4°C 63.7°F17.6°C 79% Calm Calm -- 29.79 in1008.8 mb 0.00 in0.0 mm 0.00 in0.0 mm 0.00 in0.0 mm
02:30 AM 70.7°F21.5°C 63.9°F17.7°C 79% Calm Calm -- 29.80 in1009.1 mb 0.00 in0.0 mm 0.00 in0.0 mm 0.00 in0.0 mm
02:15 AM 70.9°F21.6°C 63.7°F17.6°C 78% Calm Calm -- 29.80 in1009.1 mb 0.00 in0.0 mm 0.00 in0.0 mm 0.00 in0.0 mm
02:00 AM 71.2°F21.8°C 64.0°F17.8°C 78% Calm Calm -- 29.80 in1009.1 mb 0.00 in0.0 mm 0.00 in0.0 mm 0.00 in0.0 mm
01:45 AM 71.4°F21.9°C 64.2°F17.9°C 78% Calm Calm -- 29.80 in1009.1 mb 0.00 in0.0 mm 0.00 in0.0 mm 0.00 in0.0 mm
01:30 AM 71.4°F21.9°C 64.2°F17.9°C 78% Calm Calm -- 29.80 in1009.1 mb 0.00 in0.0 mm 0.00 in0.0 mm 0.00 in0.0 mm
01:15 AM 71.7°F22.1°C 64.1°F17.8°C 77% Calm Calm -- 29.79 in1008.8 mb 0.00 in0.0 mm 0.00 in0.0 mm 0.00 in0.0 mm
01:00 AM 71.8°F22.1°C 64.2°F17.9°C 77% Calm Calm -- 29.79 in1008.8 mb 0.00 in0.0 mm 0.00 in0.0 mm 0.00 in0.0 mm
12:45 AM 72.1°F22.3°C 64.1°F17.8°C 76% Calm Calm -- 29.79 in1008.8 mb 0.00 in0.0 mm 0.00 in0.0 mm 0.00 in0.0 mm
12:30 AM 72.6°F22.6°C 64.2°F17.9°C 75% Calm Calm -- 29.79 in1008.8 mb 0.00 in0.0 mm 0.00 in0.0 mm 0.00 in0.0 mm
12:15 AM 73.0°F22.8°C 64.2°F17.9°C 74% Calm Calm -- 29.79 in1008.8 mb 0.00 in0.0 mm 0.00 in0.0 mm 0.00 in0.0 mm
12:00 AM 73.5°F23.1°C 64.3°F17.9°C 73% Calm Calm -- 29.79 in1008.8 mb 0.00 in0.0 mm 0.00 in0.0 mm 0.00 in0.0 mm